Ouro Verde, Brazil
Current Conditions -  °F | °C
As of 4:30 AM on Monday 22 Dec 2014 (Local Time) from SBCH Reporting Station
Moderate Fog Moderate Fog  
Wind Chill: 64°   Ceiling: 200
Heat Index: 64°   Visibility: 0.12mi
Dew Point: 64°   Wind: 9mph
Humidity: 100%   Direction: 230°SW
Pressure: 29.83"   Gusts: NA
Location:  26.69°S, 52.31°W
Report Text: SBCH 220630Z 23008KT 0200 FG OVC002 18/18 Q1010
Loading
Personal Weather Stations






























Interactive Weather Map New forecast layout! Learn more

10-Day Weather Forecast

Advertisements
Track Severe Weather on mobile